sensor_id;sensor_type;location;lat;lon;timestamp;P1;durP1;ratioP1;P2;durP2;ratioP2
11187;SDS011;5650;52.700;7.306;2023-06-22T00:02:05;24.23;;;20.95;;
11187;SDS011;5650;52.700;7.306;2023-06-22T00:04:32;25.20;;;21.48;;
11187;SDS011;5650;52.700;7.306;2023-06-22T00:07:01;28.35;;;22.83;;
11187;SDS011;5650;52.700;7.306;2023-06-22T00:09:32;26.77;;;21.52;;
11187;SDS011;5650;52.700;7.306;2023-06-22T00:12:02;25.17;;;21.52;;
11187;SDS011;5650;52.700;7.306;2023-06-22T00:14:29;26.67;;;19.83;;
11187;SDS011;5650;52.700;7.306;2023-06-22T00:17:07;27.17;;;22.27;;
11187;SDS011;5650;52.700;7.306;2023-06-22T00:19:40;24.80;;;22.20;;
11187;SDS011;5650;52.700;7.306;2023-06-22T00:22:08;26.20;;;21.30;;
11187;SDS011;5650;52.700;7.306;2023-06-22T00:24:38;25.33;;;21.45;;
11187;SDS011;5650;52.700;7.306;2023-06-22T00:27:05;29.60;;;22.20;;
11187;SDS011;5650;52.700;7.306;2023-06-22T00:29:35;27.98;;;20.90;;
11187;SDS011;5650;52.700;7.306;2023-06-22T00:32:05;27.50;;;21.88;;
11187;SDS011;5650;52.700;7.306;2023-06-22T00:34:34;24.40;;;21.77;;
11187;SDS011;5650;52.700;7.306;2023-06-22T00:37:07;25.73;;;22.08;;
11187;SDS011;5650;52.700;7.306;2023-06-22T00:39:40;24.65;;;21.98;;
11187;SDS011;5650;52.700;7.306;2023-06-22T00:42:16;24.98;;;22.23;;
11187;SDS011;5650;52.700;7.306;2023-06-22T00:44:43;30.30;;;21.80;;
11187;SDS011;5650;52.700;7.306;2023-06-22T00:47:18;29.60;;;22.40;;
11187;SDS011;5650;52.700;7.306;2023-06-22T00:49:46;25.95;;;23.15;;
11187;SDS011;5650;52.700;7.306;2023-06-22T00:52:16;24.67;;;21.65;;
11187;SDS011;5650;52.700;7.306;2023-06-22T00:54:46;24.35;;;21.75;;
11187;SDS011;5650;52.700;7.306;2023-06-22T00:57:17;25.20;;;21.42;;
11187;SDS011;5650;52.700;7.306;2023-06-22T00:59:45;28.13;;;21.45;;
11187;SDS011;5650;52.700;7.306;2023-06-22T01:02:18;25.58;;;22.65;;
11187;SDS011;5650;52.700;7.306;2023-06-22T01:04:48;26.25;;;23.45;;
11187;SDS011;5650;52.700;7.306;2023-06-22T01:07:20;27.08;;;22.20;;
11187;SDS011;5650;52.700;7.306;2023-06-22T01:09:57;26.85;;;22.20;;
11187;SDS011;5650;52.700;7.306;2023-06-22T01:12:34;28.15;;;22.15;;
11187;SDS011;5650;52.700;7.306;2023-06-22T01:15:08;24.42;;;21.90;;
11187;SDS011;5650;52.700;7.306;2023-06-22T01:17:41;25.13;;;22.42;;
11187;SDS011;5650;52.700;7.306;2023-06-22T01:20:10;24.27;;;19.77;;
11187;SDS011;5650;52.700;7.306;2023-06-22T01:22:44;28.30;;;21.67;;
11187;SDS011;5650;52.700;7.306;2023-06-22T01:25:23;27.25;;;24.02;;
11187;SDS011;5650;52.700;7.306;2023-06-22T01:28:00;30.27;;;23.73;;
11187;SDS011;5650;52.700;7.306;2023-06-22T01:30:45;27.08;;;23.20;;
11187;SDS011;5650;52.700;7.306;2023-06-22T01:33:18;27.85;;;24.88;;
11187;SDS011;5650;52.700;7.306;2023-06-22T01:35:45;27.25;;;22.95;;
11187;SDS011;5650;52.700;7.306;2023-06-22T01:38:12;30.75;;;24.95;;
11187;SDS011;5650;52.700;7.306;2023-06-22T01:40:40;25.95;;;23.10;;
11187;SDS011;5650;52.700;7.306;2023-06-22T01:43:15;31.35;;;24.27;;
11187;SDS011;5650;52.700;7.306;2023-06-22T01:45:42;27.40;;;23.35;;
11187;SDS011;5650;52.700;7.306;2023-06-22T01:48:11;26.25;;;22.90;;
11187;SDS011;5650;52.700;7.306;2023-06-22T01:50:41;25.20;;;22.73;;
11187;SDS011;5650;52.700;7.306;2023-06-22T01:53:12;33.90;;;26.88;;
11187;SDS011;5650;52.700;7.306;2023-06-22T01:55:42;27.35;;;24.35;;
11187;SDS011;5650;52.700;7.306;2023-06-22T01:58:09;32.28;;;28.10;;
11187;SDS011;5650;52.700;7.306;2023-06-22T02:00:40;30.48;;;27.15;;
11187;SDS011;5650;52.700;7.306;2023-06-22T02:03:18;29.45;;;24.83;;
11187;SDS011;5650;52.700;7.306;2023-06-22T02:05:48;29.83;;;25.35;;
11187;SDS011;5650;52.700;7.306;2023-06-22T02:08:19;29.38;;;24.83;;
11187;SDS011;5650;52.700;7.306;2023-06-22T02:10:48;29.50;;;26.38;;
11187;SDS011;5650;52.700;7.306;2023-06-22T02:13:17;30.80;;;25.52;;
11187;SDS011;5650;52.700;7.306;2023-06-22T02:15:46;30.70;;;27.40;;
11187;SDS011;5650;52.700;7.306;2023-06-22T02:18:20;30.08;;;26.63;;
11187;SDS011;5650;52.700;7.306;2023-06-22T02:20:54;33.13;;;28.42;;
11187;SDS011;5650;52.700;7.306;2023-06-22T02:23:21;31.55;;;27.98;;
11187;SDS011;5650;52.700;7.306;2023-06-22T02:25:51;33.03;;;29.55;;
11187;SDS011;5650;52.700;7.306;2023-06-22T02:28:18;37.85;;;30.33;;
11187;SDS011;5650;52.700;7.306;2023-06-22T02:30:53;33.80;;;29.55;;
11187;SDS011;5650;52.700;7.306;2023-06-22T02:33:20;32.42;;;28.42;;
11187;SDS011;5650;52.700;7.306;2023-06-22T02:36:00;33.63;;;29.65;;
11187;SDS011;5650;52.700;7.306;2023-06-22T02:38:33;31.08;;;27.90;;
11187;SDS011;5650;52.700;7.306;2023-06-22T02:41:01;33.97;;;29.50;;
11187;SDS011;5650;52.700;7.306;2023-06-22T02:43:28;31.60;;;28.10;;
11187;SDS011;5650;52.700;7.306;2023-06-22T02:45:57;32.15;;;28.65;;
11187;SDS011;5650;52.700;7.306;2023-06-22T02:48:27;33.70;;;30.05;;
11187;SDS011;5650;52.700;7.306;2023-06-22T02:50:54;33.13;;;29.50;;
11187;SDS011;5650;52.700;7.306;2023-06-22T02:53:22;36.75;;;32.75;;
11187;SDS011;5650;52.700;7.306;2023-06-22T02:55:49;35.30;;;31.25;;
11187;SDS011;5650;52.700;7.306;2023-06-22T02:58:16;35.78;;;29.95;;
11187;SDS011;5650;52.700;7.306;2023-06-22T03:00:43;33.70;;;29.38;;
11187;SDS011;5650;52.700;7.306;2023-06-22T03:03:15;36.22;;;31.85;;
11187;SDS011;5650;52.700;7.306;2023-06-22T03:05:42;33.72;;;29.27;;
11187;SDS011;5650;52.700;7.306;2023-06-22T03:08:09;40.58;;;32.17;;
11187;SDS011;5650;52.700;7.306;2023-06-22T03:10:43;35.03;;;30.90;;
11187;SDS011;5650;52.700;7.306;2023-06-22T03:13:19;36.60;;;30.02;;
11187;SDS011;5650;52.700;7.306;2023-06-22T03:15:52;39.38;;;30.77;;
11187;SDS011;5650;52.700;7.306;2023-06-22T03:18:21;32.45;;;29.00;;
11187;SDS011;5650;52.700;7.306;2023-06-22T03:20:54;32.63;;;28.88;;
11187;SDS011;5650;52.700;7.306;2023-06-22T03:23:25;33.17;;;28.50;;
11187;SDS011;5650;52.700;7.306;2023-06-22T03:25:52;31.60;;;28.20;;
11187;SDS011;5650;52.700;7.306;2023-06-22T03:28:20;33.05;;;29.58;;
11187;SDS011;5650;52.700;7.306;2023-06-22T03:30:54;34.97;;;30.67;;
11187;SDS011;5650;52.700;7.306;2023-06-22T03:33:25;30.90;;;27.70;;
11187;SDS011;5650;52.700;7.306;2023-06-22T03:35:52;34.88;;;31.20;;
11187;SDS011;5650;52.700;7.306;2023-06-22T03:38:25;33.67;;;30.20;;
11187;SDS011;5650;52.700;7.306;2023-06-22T03:40:52;32.92;;;28.45;;
11187;SDS011;5650;52.700;7.306;2023-06-22T03:43:21;30.65;;;27.20;;
11187;SDS011;5650;52.700;7.306;2023-06-22T03:45:49;31.15;;;27.42;;
11187;SDS011;5650;52.700;7.306;2023-06-22T03:48:19;32.42;;;28.67;;
11187;SDS011;5650;52.700;7.306;2023-06-22T03:50:53;29.48;;;26.27;;
11187;SDS011;5650;52.700;7.306;2023-06-22T03:53:21;31.58;;;28.13;;
11187;SDS011;5650;52.700;7.306;2023-06-22T03:55:48;33.53;;;29.17;;
11187;SDS011;5650;52.700;7.306;2023-06-22T03:58:16;30.77;;;26.85;;
11187;SDS011;5650;52.700;7.306;2023-06-22T04:00:44;30.17;;;27.08;;
11187;SDS011;5650;52.700;7.306;2023-06-22T04:03:14;31.90;;;28.50;;
11187;SDS011;5650;52.700;7.306;2023-06-22T04:05:43;32.83;;;29.33;;
11187;SDS011;5650;52.700;7.306;2023-06-22T04:08:16;30.30;;;27.20;;
11187;SDS011;5650;52.700;7.306;2023-06-22T04:10:43;31.85;;;28.38;;
11187;SDS011;5650;52.700;7.306;2023-06-22T04:13:10;31.27;;;27.00;;
11187;SDS011;5650;52.700;7.306;2023-06-22T04:15:40;31.15;;;27.73;;
11187;SDS011;5650;52.700;7.306;2023-06-22T04:18:08;34.33;;;28.90;;
11187;SDS011;5650;52.700;7.306;2023-06-22T04:20:35;31.85;;;28.33;;
11187;SDS011;5650;52.700;7.306;2023-06-22T04:23:02;32.90;;;27.20;;
11187;SDS011;5650;52.700;7.306;2023-06-22T04:25:31;30.50;;;27.30;;
11187;SDS011;5650;52.700;7.306;2023-06-22T04:27:58;30.38;;;26.63;;
11187;SDS011;5650;52.700;7.306;2023-06-22T04:30:28;29.50;;;26.15;;
11187;SDS011;5650;52.700;7.306;2023-06-22T04:32:56;28.08;;;25.08;;
11187;SDS011;5650;52.700;7.306;2023-06-22T04:35:24;30.52;;;25.75;;
11187;SDS011;5650;52.700;7.306;2023-06-22T04:37:52;30.92;;;27.73;;
11187;SDS011;5650;52.700;7.306;2023-06-22T04:40:21;29.38;;;25.52;;
11187;SDS011;5650;52.700;7.306;2023-06-22T04:42:50;29.98;;;26.40;;
11187;SDS011;5650;52.700;7.306;2023-06-22T04:45:20;28.23;;;25.25;;
11187;SDS011;5650;52.700;7.306;2023-06-22T04:47:47;28.52;;;25.52;;
11187;SDS011;5650;52.700;7.306;2023-06-22T04:50:15;28.33;;;25.40;;
11187;SDS011;5650;52.700;7.306;2023-06-22T04:52:42;28.77;;;25.40;;
11187;SDS011;5650;52.700;7.306;2023-06-22T04:55:10;25.83;;;23.17;;
11187;SDS011;5650;52.700;7.306;2023-06-22T04:57:37;30.30;;;24.90;;
11187;SDS011;5650;52.700;7.306;2023-06-22T05:00:07;26.52;;;23.63;;
11187;SDS011;5650;52.700;7.306;2023-06-22T05:02:38;25.33;;;22.58;;
11187;SDS011;5650;52.700;7.306;2023-06-22T05:05:05;25.13;;;22.45;;
11187;SDS011;5650;52.700;7.306;2023-06-22T05:07:33;24.83;;;22.23;;
11187;SDS011;5650;52.700;7.306;2023-06-22T05:10:00;25.05;;;22.38;;
11187;SDS011;5650;52.700;7.306;2023-06-22T05:12:29;23.60;;;21.02;;
11187;SDS011;5650;52.700;7.306;2023-06-22T05:14:56;23.65;;;20.40;;
11187;SDS011;5650;52.700;7.306;2023-06-22T05:17:38;24.80;;;20.05;;
11187;SDS011;5650;52.700;7.306;2023-06-22T05:20:08;20.35;;;18.15;;
11187;SDS011;5650;52.700;7.306;2023-06-22T05:22:36;18.10;;;15.63;;
11187;SDS011;5650;52.700;7.306;2023-06-22T05:25:10;18.98;;;16.98;;
11187;SDS011;5650;52.700;7.306;2023-06-22T05:27:37;19.13;;;16.33;;
11187;SDS011;5650;52.700;7.306;2023-06-22T05:30:05;17.25;;;15.52;;
11187;SDS011;5650;52.700;7.306;2023-06-22T05:32:33;17.23;;;14.18;;
11187;SDS011;5650;52.700;7.306;2023-06-22T05:35:02;17.55;;;15.05;;
11187;SDS011;5650;52.700;7.306;2023-06-22T05:37:32;17.38;;;14.77;;
11187;SDS011;5650;52.700;7.306;2023-06-22T05:40:03;16.05;;;14.45;;
11187;SDS011;5650;52.700;7.306;2023-06-22T05:42:32;18.52;;;15.73;;
11187;SDS011;5650;52.700;7.306;2023-06-22T05:45:02;17.35;;;15.18;;
11187;SDS011;5650;52.700;7.306;2023-06-22T05:47:29;16.60;;;14.93;;
11187;SDS011;5650;52.700;7.306;2023-06-22T05:50:00;15.02;;;13.43;;
11187;SDS011;5650;52.700;7.306;2023-06-22T05:52:31;19.05;;;16.13;;
11187;SDS011;5650;52.700;7.306;2023-06-22T05:55:06;15.80;;;13.98;;
11187;SDS011;5650;52.700;7.306;2023-06-22T05:57:39;11.73;;;10.55;;
11187;SDS011;5650;52.700;7.306;2023-06-22T06:00:09;15.30;;;13.07;;
11187;SDS011;5650;52.700;7.306;2023-06-22T06:02:37;15.02;;;13.55;;
11187;SDS011;5650;52.700;7.306;2023-06-22T06:05:10;15.60;;;14.00;;
11187;SDS011;5650;52.700;7.306;2023-06-22T06:07:38;14.32;;;12.90;;
11187;SDS011;5650;52.700;7.306;2023-06-22T06:10:06;15.23;;;12.73;;
11187;SDS011;5650;52.700;7.306;2023-06-22T06:12:33;13.40;;;12.10;;
11187;SDS011;5650;52.700;7.306;2023-06-22T06:15:00;13.73;;;12.25;;
11187;SDS011;5650;52.700;7.306;2023-06-22T06:17:28;13.35;;;12.02;;
11187;SDS011;5650;52.700;7.306;2023-06-22T06:19:55;12.90;;;11.55;;
11187;SDS011;5650;52.700;7.306;2023-06-22T06:22:29;12.90;;;11.57;;
11187;SDS011;5650;52.700;7.306;2023-06-22T06:24:59;14.27;;;12.45;;
11187;SDS011;5650;52.700;7.306;2023-06-22T06:27:29;12.60;;;11.30;;
11187;SDS011;5650;52.700;7.306;2023-06-22T06:29:59;12.05;;;10.60;;
11187;SDS011;5650;52.700;7.306;2023-06-22T06:32:27;10.40;;;9.10;;
11187;SDS011;5650;52.700;7.306;2023-06-22T06:34:54;10.65;;;9.55;;
11187;SDS011;5650;52.700;7.306;2023-06-22T06:37:21;14.15;;;9.75;;
11187;SDS011;5650;52.700;7.306;2023-06-22T06:39:55;10.13;;;9.13;;
11187;SDS011;5650;52.700;7.306;2023-06-22T06:42:22;11.10;;;9.82;;
11187;SDS011;5650;52.700;7.306;2023-06-22T06:44:50;10.75;;;9.70;;
11187;SDS011;5650;52.700;7.306;2023-06-22T06:47:20;9.13;;;8.15;;
11187;SDS011;5650;52.700;7.306;2023-06-22T06:49:47;8.93;;;7.70;;
11187;SDS011;5650;52.700;7.306;2023-06-22T06:52:17;11.88;;;7.97;;
11187;SDS011;5650;52.700;7.306;2023-06-22T06:54:50;12.73;;;8.27;;
11187;SDS011;5650;52.700;7.306;2023-06-22T06:57:19;11.13;;;8.23;;
11187;SDS011;5650;52.700;7.306;2023-06-22T06:59:50;12.35;;;7.82;;
11187;SDS011;5650;52.700;7.306;2023-06-22T07:02:18;7.13;;;6.43;;
11187;SDS011;5650;52.700;7.306;2023-06-22T07:04:50;12.07;;;6.65;;
11187;SDS011;5650;52.700;7.306;2023-06-22T07:07:17;7.47;;;6.43;;
11187;SDS011;5650;52.700;7.306;2023-06-22T07:09:45;9.57;;;6.30;;
11187;SDS011;5650;52.700;7.306;2023-06-22T07:12:12;7.03;;;6.25;;
11187;SDS011;5650;52.700;7.306;2023-06-22T07:14:47;7.60;;;6.10;;
11187;SDS011;5650;52.700;7.306;2023-06-22T07:17:16;6.93;;;6.22;;
11187;SDS011;5650;52.700;7.306;2023-06-22T07:19:43;9.43;;;6.47;;
11187;SDS011;5650;52.700;7.306;2023-06-22T07:22:13;11.38;;;7.03;;
11187;SDS011;5650;52.700;7.306;2023-06-22T07:24:40;7.38;;;6.07;;
11187;SDS011;5650;52.700;7.306;2023-06-22T07:27:07;9.43;;;6.13;;
11187;SDS011;5650;52.700;7.306;2023-06-22T07:29:38;7.72;;;6.00;;
11187;SDS011;5650;52.700;7.306;2023-06-22T07:32:07;8.75;;;6.30;;
11187;SDS011;5650;52.700;7.306;2023-06-22T07:34:34;9.63;;;5.18;;
11187;SDS011;5650;52.700;7.306;2023-06-22T07:37:11;7.93;;;6.10;;
11187;SDS011;5650;52.700;7.306;2023-06-22T07:39:38;7.45;;;5.78;;
11187;SDS011;5650;52.700;7.306;2023-06-22T07:42:11;6.35;;;5.68;;
11187;SDS011;5650;52.700;7.306;2023-06-22T07:44:40;6.63;;;5.93;;
11187;SDS011;5650;52.700;7.306;2023-06-22T07:47:10;9.18;;;5.88;;
11187;SDS011;5650;52.700;7.306;2023-06-22T07:49:43;7.00;;;6.18;;
11187;SDS011;5650;52.700;7.306;2023-06-22T07:52:13;7.90;;;6.53;;
11187;SDS011;5650;52.700;7.306;2023-06-22T07:54:40;9.25;;;6.47;;
11187;SDS011;5650;52.700;7.306;2023-06-22T07:57:08;9.07;;;6.50;;
11187;SDS011;5650;52.700;7.306;2023-06-22T07:59:35;8.70;;;5.72;;
11187;SDS011;5650;52.700;7.306;2023-06-22T08:02:05;9.07;;;5.78;;
11187;SDS011;5650;52.700;7.306;2023-06-22T08:04:33;11.05;;;6.22;;
11187;SDS011;5650;52.700;7.306;2023-06-22T08:07:04;9.60;;;6.18;;
11187;SDS011;5650;52.700;7.306;2023-06-22T08:09:32;7.72;;;6.40;;
11187;SDS011;5650;52.700;7.306;2023-06-22T08:11:59;9.70;;;6.50;;
11187;SDS011;5650;52.700;7.306;2023-06-22T08:14:27;7.93;;;6.85;;
11187;SDS011;5650;52.700;7.306;2023-06-22T08:16:54;8.48;;;6.38;;
11187;SDS011;5650;52.700;7.306;2023-06-22T08:19:22;10.27;;;6.70;;
11187;SDS011;5650;52.700;7.306;2023-06-22T08:21:50;10.30;;;6.55;;
11187;SDS011;5650;52.700;7.306;2023-06-22T08:24:19;9.50;;;6.30;;
11187;SDS011;5650;52.700;7.306;2023-06-22T08:26:52;6.90;;;5.72;;
11187;SDS011;5650;52.700;7.306;2023-06-22T08:29:27;6.22;;;5.32;;
11187;SDS011;5650;52.700;7.306;2023-06-22T08:32:03;7.57;;;5.95;;
11187;SDS011;5650;52.700;7.306;2023-06-22T08:34:33;8.02;;;6.63;;
11187;SDS011;5650;52.700;7.306;2023-06-22T08:37:00;6.82;;;6.13;;
11187;SDS011;5650;52.700;7.306;2023-06-22T08:39:31;8.40;;;6.38;;
11187;SDS011;5650;52.700;7.306;2023-06-22T08:41:59;8.13;;;5.95;;
11187;SDS011;5650;52.700;7.306;2023-06-22T08:44:26;8.82;;;5.95;;
11187;SDS011;5650;52.700;7.306;2023-06-22T08:46:53;8.05;;;5.65;;
11187;SDS011;5650;52.700;7.306;2023-06-22T08:49:20;7.90;;;6.82;;
11187;SDS011;5650;52.700;7.306;2023-06-22T08:51:55;9.40;;;6.55;;
11187;SDS011;5650;52.700;7.306;2023-06-22T08:54:25;10.75;;;6.15;;
11187;SDS011;5650;52.700;7.306;2023-06-22T08:56:52;7.72;;;6.05;;
11187;SDS011;5650;52.700;7.306;2023-06-22T08:59:25;7.35;;;5.97;;
11187;SDS011;5650;52.700;7.306;2023-06-22T09:01:58;7.82;;;6.15;;
11187;SDS011;5650;52.700;7.306;2023-06-22T09:04:28;9.30;;;6.50;;
11187;SDS011;5650;52.700;7.306;2023-06-22T09:07:04;10.50;;;6.47;;
11187;SDS011;5650;52.700;7.306;2023-06-22T09:09:31;10.88;;;6.72;;
11187;SDS011;5650;52.700;7.306;2023-06-22T09:12:00;14.50;;;7.10;;
11187;SDS011;5650;52.700;7.306;2023-06-22T09:14:37;9.82;;;6.78;;
11187;SDS011;5650;52.700;7.306;2023-06-22T09:17:07;7.40;;;6.50;;
11187;SDS011;5650;52.700;7.306;2023-06-22T09:19:37;12.23;;;7.35;;
11187;SDS011;5650;52.700;7.306;2023-06-22T09:22:06;11.15;;;6.97;;
11187;SDS011;5650;52.700;7.306;2023-06-22T09:24:33;7.80;;;6.30;;
11187;SDS011;5650;52.700;7.306;2023-06-22T09:27:04;7.28;;;6.00;;
11187;SDS011;5650;52.700;7.306;2023-06-22T09:29:31;6.72;;;5.60;;
11187;SDS011;5650;52.700;7.306;2023-06-22T09:32:01;7.22;;;6.35;;
11187;SDS011;5650;52.700;7.306;2023-06-22T09:34:30;8.50;;;6.60;;
11187;SDS011;5650;52.700;7.306;2023-06-22T09:37:00;8.23;;;6.78;;
11187;SDS011;5650;52.700;7.306;2023-06-22T09:39:29;10.35;;;6.95;;
11187;SDS011;5650;52.700;7.306;2023-06-22T09:41:59;10.85;;;6.32;;
11187;SDS011;5650;52.700;7.306;2023-06-22T09:44:26;10.90;;;6.72;;
11187;SDS011;5650;52.700;7.306;2023-06-22T09:46:53;6.88;;;6.00;;
11187;SDS011;5650;52.700;7.306;2023-06-22T09:49:21;9.60;;;6.63;;
11187;SDS011;5650;52.700;7.306;2023-06-22T09:51:51;9.55;;;7.10;;
11187;SDS011;5650;52.700;7.306;2023-06-22T09:54:18;8.95;;;6.75;;
11187;SDS011;5650;52.700;7.306;2023-06-22T09:56:46;9.02;;;6.05;;
11187;SDS011;5650;52.700;7.306;2023-06-22T09:59:13;12.40;;;6.13;;
11187;SDS011;5650;52.700;7.306;2023-06-22T10:01:43;9.60;;;5.88;;
11187;SDS011;5650;52.700;7.306;2023-06-22T10:04:10;7.95;;;5.95;;
11187;SDS011;5650;52.700;7.306;2023-06-22T10:06:41;8.20;;;6.88;;
11187;SDS011;5650;52.700;7.306;2023-06-22T10:09:14;8.27;;;7.15;;
11187;SDS011;5650;52.700;7.306;2023-06-22T10:11:41;9.52;;;7.75;;
11187;SDS011;5650;52.700;7.306;2023-06-22T10:14:16;8.63;;;7.72;;
11187;SDS011;5650;52.700;7.306;2023-06-22T10:16:43;10.57;;;6.80;;
11187;SDS011;5650;52.700;7.306;2023-06-22T10:19:14;8.63;;;7.72;;
11187;SDS011;5650;52.700;7.306;2023-06-22T10:21:41;9.15;;;7.47;;
11187;SDS011;5650;52.700;7.306;2023-06-22T10:24:12;12.02;;;7.25;;
11187;SDS011;5650;52.700;7.306;2023-06-22T10:26:39;8.63;;;7.63;;
11187;SDS011;5650;52.700;7.306;2023-06-22T10:29:06;10.30;;;5.97;;
11187;SDS011;5650;52.700;7.306;2023-06-22T10:31:34;7.93;;;6.75;;
11187;SDS011;5650;52.700;7.306;2023-06-22T10:34:02;11.48;;;6.78;;
11187;SDS011;5650;52.700;7.306;2023-06-22T10:36:29;8.27;;;6.30;;
11187;SDS011;5650;52.700;7.306;2023-06-22T10:38:56;7.70;;;7.00;;
11187;SDS011;5650;52.700;7.306;2023-06-22T10:41:24;8.68;;;6.05;;
11187;SDS011;5650;52.700;7.306;2023-06-22T10:43:54;11.10;;;6.38;;
11187;SDS011;5650;52.700;7.306;2023-06-22T10:46:30;7.97;;;6.07;;
11187;SDS011;5650;52.700;7.306;2023-06-22T10:49:02;8.80;;;6.72;;
11187;SDS011;5650;52.700;7.306;2023-06-22T10:51:36;11.57;;;6.60;;
11187;SDS011;5650;52.700;7.306;2023-06-22T10:54:04;6.57;;;5.78;;
11187;SDS011;5650;52.700;7.306;2023-06-22T10:56:38;7.30;;;6.38;;
11187;SDS011;5650;52.700;7.306;2023-06-22T10:59:06;8.02;;;6.90;;
11187;SDS011;5650;52.700;7.306;2023-06-22T11:01:35;6.75;;;5.93;;
11187;SDS011;5650;52.700;7.306;2023-06-22T11:04:04;9.60;;;7.80;;
11187;SDS011;5650;52.700;7.306;2023-06-22T11:06:31;8.75;;;6.93;;
11187;SDS011;5650;52.700;7.306;2023-06-22T11:08:59;15.13;;;7.43;;
11187;SDS011;5650;52.700;7.306;2023-06-22T11:11:26;10.13;;;7.28;;
11187;SDS011;5650;52.700;7.306;2023-06-22T11:13:56;8.32;;;7.53;;
11187;SDS011;5650;52.700;7.306;2023-06-22T11:16:23;10.50;;;7.30;;
11187;SDS011;5650;52.700;7.306;2023-06-22T11:18:50;9.13;;;7.53;;
11187;SDS011;5650;52.700;7.306;2023-06-22T11:21:19;15.43;;;7.25;;
11187;SDS011;5650;52.700;7.306;2023-06-22T11:23:46;10.00;;;6.95;;
11187;SDS011;5650;52.700;7.306;2023-06-22T11:26:17;9.82;;;7.35;;
11187;SDS011;5650;52.700;7.306;2023-06-22T11:28:44;7.78;;;6.60;;
11187;SDS011;5650;52.700;7.306;2023-06-22T11:31:14;11.43;;;7.43;;
11187;SDS011;5650;52.700;7.306;2023-06-22T11:33:47;9.73;;;6.70;;
11187;SDS011;5650;52.700;7.306;2023-06-22T11:36:14;6.70;;;6.00;;
11187;SDS011;5650;52.700;7.306;2023-06-22T11:39:01;7.80;;;6.45;;
11187;SDS011;5650;52.700;7.306;2023-06-22T11:41:30;9.00;;;7.18;;
11187;SDS011;5650;52.700;7.306;2023-06-22T11:43:57;9.93;;;7.45;;
11187;SDS011;5650;52.700;7.306;2023-06-22T11:46:24;10.05;;;7.05;;
11187;SDS011;5650;52.700;7.306;2023-06-22T11:48:51;8.68;;;7.05;;
11187;SDS011;5650;52.700;7.306;2023-06-22T11:51:19;9.75;;;7.35;;
11187;SDS011;5650;52.700;7.306;2023-06-22T11:53:46;8.20;;;7.30;;
11187;SDS011;5650;52.700;7.306;2023-06-22T11:56:17;11.00;;;7.53;;
11187;SDS011;5650;52.700;7.306;2023-06-22T11:58:44;10.10;;;7.60;;
11187;SDS011;5650;52.700;7.306;2023-06-22T12:01:11;9.82;;;7.50;;
11187;SDS011;5650;52.700;7.306;2023-06-22T12:03:40;10.15;;;8.15;;
11187;SDS011;5650;52.700;7.306;2023-06-22T12:06:13;13.32;;;7.70;;
11187;SDS011;5650;52.700;7.306;2023-06-22T12:08:43;14.90;;;7.50;;
11187;SDS011;5650;52.700;7.306;2023-06-22T12:11:10;7.57;;;6.72;;
11187;SDS011;5650;52.700;7.306;2023-06-22T12:13:39;7.60;;;6.82;;
11187;SDS011;5650;52.700;7.306;2023-06-22T12:16:07;11.40;;;7.75;;
11187;SDS011;5650;52.700;7.306;2023-06-22T12:18:34;10.15;;;7.43;;
11187;SDS011;5650;52.700;7.306;2023-06-22T12:21:14;8.25;;;7.35;;
11187;SDS011;5650;52.700;7.306;2023-06-22T12:23:56;9.15;;;7.60;;
11187;SDS011;5650;52.700;7.306;2023-06-22T12:26:32;9.43;;;6.93;;
11187;SDS011;5650;52.700;7.306;2023-06-22T12:29:01;14.38;;;7.28;;
11187;SDS011;5650;52.700;7.306;2023-06-22T12:31:31;8.05;;;6.78;;
11187;SDS011;5650;52.700;7.306;2023-06-22T12:34:02;9.93;;;7.25;;
11187;SDS011;5650;52.700;7.306;2023-06-22T12:36:32;7.60;;;6.70;;
11187;SDS011;5650;52.700;7.306;2023-06-22T12:39:02;7.70;;;6.90;;
11187;SDS011;5650;52.700;7.306;2023-06-22T12:41:29;7.90;;;7.00;;
11187;SDS011;5650;52.700;7.306;2023-06-22T12:43:56;11.48;;;7.85;;
11187;SDS011;5650;52.700;7.306;2023-06-22T12:46:25;9.63;;;6.75;;
11187;SDS011;5650;52.700;7.306;2023-06-22T12:48:52;7.95;;;7.15;;
11187;SDS011;5650;52.700;7.306;2023-06-22T12:51:22;11.55;;;6.82;;
11187;SDS011;5650;52.700;7.306;2023-06-22T12:53:53;12.98;;;7.25;;
11187;SDS011;5650;52.700;7.306;2023-06-22T12:56:26;7.88;;;7.03;;
11187;SDS011;5650;52.700;7.306;2023-06-22T12:58:59;10.88;;;8.05;;
11187;SDS011;5650;52.700;7.306;2023-06-22T13:01:31;10.77;;;7.28;;
11187;SDS011;5650;52.700;7.306;2023-06-22T13:04:01;9.05;;;7.47;;
11187;SDS011;5650;52.700;7.306;2023-06-22T13:06:36;13.30;;;7.32;;
11187;SDS011;5650;52.700;7.306;2023-06-22T13:09:03;8.82;;;6.93;;
11187;SDS011;5650;52.700;7.306;2023-06-22T13:11:49;9.38;;;7.40;;
11187;SDS011;5650;52.700;7.306;2023-06-22T13:14:17;9.98;;;7.15;;
11187;SDS011;5650;52.700;7.306;2023-06-22T13:16:46;9.57;;;7.25;;
11187;SDS011;5650;52.700;7.306;2023-06-22T13:19:13;10.73;;;8.15;;
11187;SDS011;5650;52.700;7.306;2023-06-22T13:21:40;10.30;;;7.82;;
11187;SDS011;5650;52.700;7.306;2023-06-22T13:24:16;10.10;;;7.45;;
11187;SDS011;5650;52.700;7.306;2023-06-22T13:26:43;9.75;;;7.32;;
11187;SDS011;5650;52.700;7.306;2023-06-22T13:29:10;8.20;;;6.32;;
11187;SDS011;5650;52.700;7.306;2023-06-22T13:31:40;9.05;;;7.07;;
11187;SDS011;5650;52.700;7.306;2023-06-22T13:34:11;10.20;;;6.80;;
11187;SDS011;5650;52.700;7.306;2023-06-22T13:36:38;7.32;;;6.63;;
11187;SDS011;5650;52.700;7.306;2023-06-22T13:39:05;9.85;;;7.45;;
11187;SDS011;5650;52.700;7.306;2023-06-22T13:41:35;9.25;;;7.13;;
11187;SDS011;5650;52.700;7.306;2023-06-22T13:44:08;10.95;;;7.55;;
11187;SDS011;5650;52.700;7.306;2023-06-22T13:46:36;7.78;;;6.75;;
11187;SDS011;5650;52.700;7.306;2023-06-22T13:49:03;8.65;;;6.55;;
11187;SDS011;5650;52.700;7.306;2023-06-22T13:51:32;9.73;;;6.38;;
11187;SDS011;5650;52.700;7.306;2023-06-22T13:53:59;7.00;;;6.30;;
11187;SDS011;5650;52.700;7.306;2023-06-22T13:56:26;9.10;;;6.70;;
11187;SDS011;5650;52.700;7.306;2023-06-22T13:58:54;7.75;;;6.95;;
11187;SDS011;5650;52.700;7.306;2023-06-22T14:01:24;8.90;;;7.03;;
11187;SDS011;5650;52.700;7.306;2023-06-22T14:03:53;8.00;;;7.22;;
11187;SDS011;5650;52.700;7.306;2023-06-22T14:06:23;7.50;;;6.70;;
11187;SDS011;5650;52.700;7.306;2023-06-22T14:08:53;8.05;;;6.68;;
11187;SDS011;5650;52.700;7.306;2023-06-22T14:11:20;8.13;;;7.10;;
11187;SDS011;5650;52.700;7.306;2023-06-22T14:13:53;9.38;;;7.07;;
11187;SDS011;5650;52.700;7.306;2023-06-22T14:16:20;7.47;;;6.60;;
11187;SDS011;5650;52.700;7.306;2023-06-22T14:18:48;8.88;;;6.97;;
11187;SDS011;5650;52.700;7.306;2023-06-22T14:21:18;7.72;;;6.90;;
11187;SDS011;5650;52.700;7.306;2023-06-22T14:23:45;8.93;;;7.00;;
11187;SDS011;5650;52.700;7.306;2023-06-22T14:26:23;8.88;;;7.40;;
11187;SDS011;5650;52.700;7.306;2023-06-22T14:28:50;9.95;;;7.03;;
11187;SDS011;5650;52.700;7.306;2023-06-22T14:31:31;8.00;;;6.32;;
11187;SDS011;5650;52.700;7.306;2023-06-22T14:33:59;9.45;;;6.30;;
11187;SDS011;5650;52.700;7.306;2023-06-22T14:36:33;10.10;;;6.80;;
11187;SDS011;5650;52.700;7.306;2023-06-22T14:39:00;7.72;;;6.18;;
11187;SDS011;5650;52.700;7.306;2023-06-22T14:41:32;8.05;;;6.53;;
11187;SDS011;5650;52.700;7.306;2023-06-22T14:43:59;12.23;;;7.57;;
11187;SDS011;5650;52.700;7.306;2023-06-22T14:46:27;10.05;;;8.05;;
11187;SDS011;5650;52.700;7.306;2023-06-22T14:48:56;9.55;;;8.38;;
11187;SDS011;5650;52.700;7.306;2023-06-22T14:51:23;11.35;;;8.85;;
11187;SDS011;5650;52.700;7.306;2023-06-22T14:53:51;9.85;;;8.82;;
11187;SDS011;5650;52.700;7.306;2023-06-22T14:56:22;13.63;;;9.40;;
11187;SDS011;5650;52.700;7.306;2023-06-22T14:58:50;11.98;;;10.23;;
11187;SDS011;5650;52.700;7.306;2023-06-22T15:01:17;14.10;;;10.15;;
11187;SDS011;5650;52.700;7.306;2023-06-22T15:03:45;13.73;;;10.23;;